createdAt,value
2023-03-18T00:01:28.749Z,82.94
2023-03-18T00:03:56.150Z,82.41
2023-03-18T00:06:23.116Z,82.44
2023-03-18T00:08:50.824Z,81.88
2023-03-18T00:11:21.337Z,81.86
2023-03-18T00:13:49.504Z,82.37
2023-03-18T00:16:17.089Z,82.29
2023-03-18T00:18:44.588Z,82.50
2023-03-18T00:21:12.243Z,82.16
2023-03-18T00:23:39.823Z,82.59
2023-03-18T00:26:08.992Z,81.90
2023-03-18T00:28:37.429Z,81.80
2023-03-18T00:31:10.293Z,80.10
2023-03-18T00:33:40.051Z,80.96
2023-03-18T00:36:10.257Z,80.72
2023-03-18T00:38:37.484Z,80.59
2023-03-18T00:41:11.271Z,80.15
2023-03-18T00:43:52.223Z,80.28
2023-03-18T00:46:25.951Z,79.71
2023-03-18T00:49:00.323Z,79.84
2023-03-18T00:51:30.073Z,80.14
2023-03-18T00:54:01.887Z,80.73
2023-03-18T00:56:32.109Z,80.11
2023-03-18T00:59:00.203Z,79.93
2023-03-18T01:01:28.198Z,81.18
2023-03-18T01:03:55.333Z,82.95
2023-03-18T01:06:29.043Z,83.57
2023-03-18T01:08:58.617Z,83.68
2023-03-18T01:11:26.300Z,83.99
2023-03-18T01:13:53.798Z,83.93
2023-03-18T01:16:22.177Z,84.24
2023-03-18T01:18:49.449Z,83.56
2023-03-18T01:21:17.350Z,80.91
2023-03-18T01:23:44.547Z,81.09
2023-03-18T01:26:11.511Z,80.61
2023-03-18T01:28:38.653Z,80.30
2023-03-18T01:31:05.936Z,79.48
2023-03-18T01:33:33.459Z,79.67
2023-03-18T01:36:03.799Z,78.95
2023-03-18T01:38:31.418Z,79.60
2023-03-18T01:41:00.658Z,83.27
2023-03-18T01:43:34.950Z,83.56
2023-03-18T01:46:31.451Z,82.73
2023-03-18T01:48:59.191Z,80.65
2023-03-18T01:51:27.426Z,80.27
2023-03-18T01:53:57.715Z,80.48
2023-03-18T01:56:25.058Z,79.01
2023-03-18T01:58:57.468Z,78.49
2023-03-18T02:01:46.651Z,78.31
2023-03-18T02:06:40.718Z,79.40
2023-03-18T02:09:08.905Z,78.86
2023-03-18T02:11:43.446Z,79.43
2023-03-18T02:14:14.178Z,79.70
2023-03-18T02:16:51.252Z,79.07
2023-03-18T02:20:00.493Z,79.33
2023-03-18T02:22:38.425Z,79.83
2023-03-18T02:25:34.545Z,80.70
2023-03-18T02:28:09.885Z,79.29
2023-03-18T02:30:45.153Z,79.10
2023-03-18T02:33:16.838Z,78.17
2023-03-18T02:35:47.625Z,78.31
2023-03-18T02:38:14.529Z,77.86
2023-03-18T02:40:42.591Z,76.99
2023-03-18T02:43:23.618Z,77.40
2023-03-18T02:45:56.388Z,76.48
2023-03-18T02:48:33.109Z,76.65
2023-03-18T02:51:00.185Z,75.54
2023-03-18T02:53:27.162Z,75.96
2023-03-18T02:55:55.571Z,75.19
2023-03-18T02:58:22.521Z,76.27
2023-03-18T03:00:49.458Z,76.90
2023-03-18T03:03:16.677Z,75.85
2023-03-18T03:05:43.708Z,75.24
2023-03-18T03:08:11.134Z,74.13
2023-03-18T03:10:38.137Z,75.24
2023-03-18T03:13:06.296Z,74.74
2023-03-18T03:15:33.599Z,74.50
2023-03-18T03:18:00.643Z,74.02
2023-03-18T03:20:28.476Z,73.41
2023-03-18T03:22:55.630Z,73.46
2023-03-18T03:25:22.760Z,72.96
2023-03-18T03:27:49.972Z,73.64
2023-03-18T03:30:17.266Z,73.90
2023-03-18T03:32:46.425Z,73.85
2023-03-18T03:35:19.425Z,73.29
2023-03-18T03:37:47.111Z,72.99
2023-03-18T03:40:17.366Z,73.15
2023-03-18T03:42:45.208Z,74.73
2023-03-18T03:45:14.498Z,73.84
2023-03-18T03:47:42.884Z,74.50
2023-03-18T03:50:11.673Z,74.53
2023-03-18T03:52:39.466Z,74.30
2023-03-18T03:55:09.184Z,73.56
2023-03-18T03:57:36.990Z,73.35
2023-03-18T04:00:11.142Z,74.15
2023-03-18T04:02:38.070Z,73.68
2023-03-18T04:05:05.796Z,71.96
2023-03-18T04:07:32.767Z,72.58
2023-03-18T04:09:59.693Z,72.87
2023-03-18T04:12:26.598Z,72.90
2023-03-18T04:14:53.645Z,73.34
2023-03-18T04:17:20.762Z,72.59
2023-03-18T04:19:47.725Z,73.64
2023-03-18T04:22:15.373Z,72.80
2023-03-18T04:24:42.722Z,73.23
2023-03-18T04:27:09.828Z,72.85
2023-03-18T04:29:36.806Z,74.04
2023-03-18T04:32:04.639Z,74.17
2023-03-18T04:34:31.991Z,74.13
2023-03-18T04:36:58.860Z,74.00
2023-03-18T04:39:25.857Z,74.78
2023-03-18T04:41:53.326Z,75.32
2023-03-18T04:44:21.001Z,74.86
2023-03-18T04:46:47.884Z,74.19
2023-03-18T04:49:14.914Z,73.30
2023-03-18T04:51:42.329Z,73.20
2023-03-18T04:54:09.248Z,73.66
2023-03-18T04:56:36.166Z,73.64
2023-03-18T04:59:03.278Z,71.85
2023-03-18T05:01:30.306Z,71.99
2023-03-18T05:03:57.275Z,72.47
2023-03-18T05:06:28.833Z,74.13
2023-03-18T05:08:57.163Z,74.77
2023-03-18T05:11:24.435Z,75.26
2023-03-18T05:13:52.129Z,75.13
2023-03-18T05:16:19.352Z,75.34
2023-03-18T05:18:46.878Z,75.55
2023-03-18T05:21:13.781Z,75.56
2023-03-18T05:23:41.071Z,75.13
2023-03-18T05:26:08.044Z,77.99
2023-03-18T05:28:34.945Z,81.02
2023-03-18T05:31:02.465Z,81.64
2023-03-18T05:33:29.921Z,81.98
2023-03-18T05:35:56.908Z,82.53
2023-03-18T05:38:24.153Z,83.47
2023-03-18T05:40:51.436Z,82.90
2023-03-18T05:43:18.613Z,83.65
2023-03-18T05:45:45.602Z,83.91
2023-03-18T05:48:12.728Z,83.56
2023-03-18T05:50:43.743Z,83.83
2023-03-18T05:53:12.047Z,83.60
2023-03-18T05:55:40.441Z,83.00
2023-03-18T05:58:07.591Z,83.37
2023-03-18T06:00:35.421Z,82.93
2023-03-18T06:03:02.867Z,81.65
2023-03-18T06:05:31.310Z,80.67
2023-03-18T06:07:59.510Z,80.15
2023-03-18T06:10:26.761Z,78.48
2023-03-18T06:12:55.794Z,78.74
2023-03-18T06:15:23.609Z,78.49
2023-03-18T06:17:51.019Z,79.21
2023-03-18T06:20:19.561Z,79.87
2023-03-18T06:22:50.320Z,80.49
2023-03-18T06:25:20.267Z,80.30
2023-03-18T06:27:48.064Z,79.32
2023-03-18T06:30:16.944Z,77.00
2023-03-18T06:32:44.305Z,77.46
2023-03-18T06:35:12.792Z,76.32
2023-03-18T06:37:40.459Z,76.76
2023-03-18T06:40:10.566Z,76.00
2023-03-18T06:42:37.827Z,77.19
2023-03-18T06:45:05.431Z,75.24
2023-03-18T06:47:32.798Z,74.83
2023-03-18T06:50:00.308Z,75.96
2023-03-18T06:52:28.285Z,76.04
2023-03-18T06:54:55.642Z,76.68
2023-03-18T06:57:22.628Z,77.64
2023-03-18T06:59:49.638Z,78.39
2023-03-18T07:02:17.702Z,78.90
2023-03-18T07:04:44.784Z,79.19
2023-03-18T07:07:12.166Z,78.73
2023-03-18T07:09:39.098Z,77.90
2023-03-18T07:12:07.058Z,77.36
2023-03-18T07:14:33.992Z,75.08
2023-03-18T07:17:02.197Z,74.17
2023-03-18T07:19:29.209Z,72.46
2023-03-18T07:21:57.051Z,72.00
2023-03-18T07:24:24.020Z,71.68
2023-03-18T07:26:51.683Z,70.24
2023-03-18T07:29:19.560Z,71.25
2023-03-18T07:31:46.904Z,69.66
2023-03-18T07:34:18.754Z,70.29
2023-03-18T07:36:45.794Z,69.76
2023-03-18T07:39:12.857Z,70.01
2023-03-18T07:41:39.866Z,68.21
2023-03-18T07:44:07.842Z,67.89
2023-03-18T07:46:35.209Z,67.80
2023-03-18T07:49:02.240Z,66.17
2023-03-18T07:51:29.468Z,66.45
2023-03-18T07:53:56.605Z,67.55
2023-03-18T07:56:24.232Z,67.03
2023-03-18T07:58:51.781Z,66.48
2023-03-18T08:01:19.536Z,65.64
2023-03-18T08:03:47.673Z,64.88
2023-03-18T08:06:15.714Z,63.46
2023-03-18T08:08:43.762Z,64.18
2023-03-18T08:11:11.775Z,62.96
2023-03-18T08:13:39.620Z,62.57
2023-03-18T08:16:07.459Z,62.15
2023-03-18T08:18:35.363Z,61.71
2023-03-18T08:21:02.325Z,62.66
2023-03-18T08:23:29.353Z,60.93
2023-03-18T08:25:56.643Z,61.45
2023-03-18T08:28:23.783Z,59.65
2023-03-18T08:30:55.994Z,58.87
2023-03-18T08:33:27.621Z,58.34
2023-03-18T08:35:56.286Z,58.31
2023-03-18T08:38:24.881Z,58.59
2023-03-18T08:40:52.160Z,57.54
2023-03-18T08:43:22.364Z,57.92
2023-03-18T08:45:55.941Z,57.80
2023-03-18T08:48:25.704Z,58.40
2023-03-18T08:50:52.748Z,56.46
2023-03-18T08:53:19.975Z,57.66
2023-03-18T08:55:47.700Z,57.42
2023-03-18T08:58:14.735Z,57.05
2023-03-18T09:00:42.952Z,57.03
2023-03-18T09:03:11.174Z,56.71
2023-03-18T09:05:38.621Z,56.36
2023-03-18T09:08:06.578Z,55.39
2023-03-18T09:10:34.213Z,55.17
2023-03-18T09:13:01.163Z,55.57
2023-03-18T09:15:28.198Z,54.36
2023-03-18T09:18:10.317Z,56.61
2023-03-18T09:20:39.196Z,54.90
2023-03-18T09:23:07.361Z,54.35
2023-03-18T09:25:35.268Z,54.08
2023-03-18T09:28:02.509Z,51.79
2023-03-18T09:30:30.164Z,52.80
2023-03-18T09:32:57.247Z,52.46
2023-03-18T09:35:24.574Z,52.56
2023-03-18T09:37:52.127Z,52.20
2023-03-18T09:40:38.026Z,52.29
2023-03-18T09:43:26.287Z,51.91
2023-03-18T09:46:32.112Z,51.41
2023-03-18T09:49:39.710Z,50.89
2023-03-18T09:52:23.255Z,52.67
2023-03-18T09:55:23.168Z,50.37
2023-03-18T09:57:55.174Z,49.84
2023-03-18T10:00:36.976Z,51.06
2023-03-18T10:03:10.136Z,51.07
2023-03-18T10:05:53.096Z,51.39
2023-03-18T10:08:38.703Z,50.88
2023-03-18T10:11:16.897Z,50.92
2023-03-18T10:14:22.414Z,51.84
2023-03-18T10:17:13.600Z,51.53
2023-03-18T10:19:52.485Z,51.43
2023-03-18T10:22:55.048Z,52.90
2023-03-18T10:25:36.056Z,53.52
2023-03-18T10:28:35.731Z,51.77
2023-03-18T10:31:47.250Z,52.06
2023-03-18T10:34:24.900Z,53.14
2023-03-18T10:36:55.622Z,53.66
2023-03-18T10:39:26.310Z,53.28
2023-03-18T10:41:55.849Z,51.44
2023-03-18T10:44:43.177Z,50.07
2023-03-18T10:47:21.039Z,49.75
2023-03-18T10:50:25.479Z,49.79
2023-03-18T10:53:05.584Z,48.49
2023-03-18T10:55:51.204Z,48.21
2023-03-18T10:58:19.991Z,47.74
2023-03-18T11:00:47.705Z,49.24
2023-03-18T11:03:30.994Z,48.93
2023-03-18T11:06:04.243Z,47.27
2023-03-18T11:08:41.108Z,47.46
2023-03-18T11:11:32.835Z,46.37
2023-03-18T11:14:03.087Z,47.11
2023-03-18T11:16:56.527Z,49.14
2023-03-18T11:19:48.845Z,47.62
2023-03-18T11:22:19.645Z,47.68
2023-03-18T11:25:06.098Z,46.43
2023-03-18T11:27:43.855Z,46.03
2023-03-18T11:30:33.079Z,46.54
2023-03-18T11:33:35.121Z,48.16
2023-03-18T11:36:09.709Z,48.45
2023-03-18T11:38:37.852Z,48.33
2023-03-18T11:41:26.553Z,49.27
2023-03-18T11:44:00.387Z,49.70
2023-03-18T11:46:40.904Z,49.00
2023-03-18T11:49:14.492Z,49.28
2023-03-18T11:52:27.385Z,48.01
2023-03-18T11:55:18.489Z,47.63
2023-03-18T11:58:00.286Z,47.31
2023-03-18T12:00:42.259Z,47.64
2023-03-18T12:03:35.503Z,48.57
2023-03-18T12:06:16.916Z,49.01
2023-03-18T12:09:12.524Z,48.68
2023-03-18T12:12:10.078Z,48.85
2023-03-18T12:15:03.252Z,47.80
2023-03-18T12:17:43.556Z,48.40
2023-03-18T12:20:40.437Z,49.16
2023-03-18T12:23:20.203Z,48.41
2023-03-18T12:26:01.205Z,48.77
2023-03-18T12:29:14.366Z,49.23
2023-03-18T12:31:59.659Z,49.14
2023-03-18T12:34:48.854Z,47.80
2023-03-18T12:38:10.356Z,47.67
2023-03-18T12:41:18.817Z,47.14
2023-03-18T12:44:21.827Z,46.54
2023-03-18T12:47:11.093Z,46.63
2023-03-18T12:50:03.894Z,46.96
2023-03-18T12:53:05.393Z,46.78
2023-03-18T12:55:38.175Z,48.54
2023-03-18T12:58:10.903Z,46.72
2023-03-18T13:01:19.870Z,46.67
2023-03-18T13:04:06.338Z,45.91
2023-03-18T13:07:50.666Z,47.18
2023-03-18T13:10:25.097Z,46.58
2023-03-18T13:12:56.388Z,46.95
2023-03-18T13:15:38.417Z,46.38
2023-03-18T13:18:34.259Z,46.25
2023-03-18T13:21:01.994Z,46.65
2023-03-18T13:23:50.493Z,47.10
2023-03-18T13:26:48.819Z,46.70
2023-03-18T13:30:08.973Z,47.18
2023-03-18T13:32:58.896Z,47.17
2023-03-18T13:35:55.872Z,46.68
2023-03-18T13:39:08.467Z,45.70
2023-03-18T13:41:53.418Z,46.08
2023-03-18T13:44:37.196Z,46.69
2023-03-18T13:47:09.176Z,45.95
2023-03-18T13:49:39.398Z,47.09
2023-03-18T13:52:26.310Z,46.43
2023-03-18T13:54:53.548Z,47.26
2023-03-18T13:57:29.716Z,46.71
2023-03-18T14:00:27.568Z,47.00
2023-03-18T14:03:17.387Z,45.95
2023-03-18T14:05:47.067Z,46.87
2023-03-18T14:08:38.970Z,45.37
2023-03-18T14:11:20.118Z,44.83
2023-03-18T14:14:06.073Z,45.53
2023-03-18T14:16:37.709Z,45.67
2023-03-18T14:19:32.694Z,45.38
2023-03-18T14:22:19.830Z,46.04
2023-03-18T14:25:24.360Z,45.29
2023-03-18T14:28:19.428Z,44.86
2023-03-18T14:30:58.136Z,45.31
2023-03-18T14:33:25.025Z,45.25
2023-03-18T14:36:08.064Z,46.26
2023-03-18T14:38:41.570Z,46.99
2023-03-18T14:41:29.902Z,45.28
2023-03-18T14:44:06.460Z,45.96
2023-03-18T14:46:41.426Z,45.11
2023-03-18T14:50:04.483Z,45.14
2023-03-18T14:52:39.849Z,45.20
2023-03-18T14:55:18.871Z,46.06
2023-03-18T14:57:46.403Z,45.38
2023-03-18T15:00:20.470Z,45.19
2023-03-18T15:03:00.640Z,45.76
2023-03-18T15:05:35.088Z,46.00
2023-03-18T15:08:09.015Z,45.33
2023-03-18T15:10:36.605Z,46.33
2023-03-18T15:13:24.216Z,45.15
2023-03-18T15:15:56.387Z,45.59
2023-03-18T15:18:36.262Z,45.21
2023-03-18T15:21:13.904Z,46.05
2023-03-18T15:23:45.923Z,45.69
2023-03-18T15:26:22.260Z,46.15
2023-03-18T15:29:00.772Z,46.36
2023-03-18T15:31:32.998Z,46.71
2023-03-18T15:34:26.076Z,45.76
2023-03-18T15:36:56.700Z,46.09
2023-03-18T15:39:44.046Z,46.03
2023-03-18T15:42:21.590Z,46.30
2023-03-18T15:45:00.855Z,46.80
2023-03-18T15:47:31.632Z,45.77
2023-03-18T15:50:09.586Z,46.39
2023-03-18T15:52:42.977Z,46.29
2023-03-18T15:55:30.578Z,48.38
2023-03-18T15:57:58.948Z,46.77
2023-03-18T16:00:26.375Z,47.83
2023-03-18T16:02:53.728Z,47.86
2023-03-18T16:05:26.185Z,47.76
2023-03-18T16:07:54.075Z,47.96
2023-03-18T16:10:23.740Z,47.63
2023-03-18T16:12:59.233Z,47.76
2023-03-18T16:15:27.872Z,47.83
2023-03-18T16:17:56.257Z,48.06
2023-03-18T16:20:28.961Z,48.05
2023-03-18T16:22:56.404Z,48.53
2023-03-18T16:25:24.674Z,48.90
2023-03-18T16:27:56.416Z,48.91
2023-03-18T16:30:33.469Z,48.49
2023-03-18T16:33:00.658Z,48.92
2023-03-18T16:35:33.456Z,49.55
2023-03-18T16:38:01.268Z,49.74
2023-03-18T16:40:31.362Z,49.63
2023-03-18T16:42:58.906Z,50.14
2023-03-18T16:45:32.201Z,50.38
2023-03-18T16:48:05.183Z,50.36
2023-03-18T16:50:38.133Z,50.31
2023-03-18T16:53:26.245Z,50.39
2023-03-18T16:55:59.741Z,50.15
2023-03-18T16:58:33.604Z,49.99
2023-03-18T17:01:01.474Z,50.18
2023-03-18T17:03:29.400Z,50.63
2023-03-18T17:05:57.362Z,50.59
2023-03-18T17:08:24.359Z,50.34
2023-03-18T17:10:55.878Z,50.72
2023-03-18T17:13:28.442Z,50.88
2023-03-18T17:15:55.779Z,51.47
2023-03-18T17:18:24.601Z,51.96
2023-03-18T17:20:52.017Z,52.27
2023-03-18T17:23:30.094Z,51.48
2023-03-18T17:25:59.653Z,51.90
2023-03-18T17:28:41.832Z,52.49
2023-03-18T17:31:12.137Z,52.71
2023-03-18T17:33:39.445Z,53.14
2023-03-18T17:36:07.717Z,53.10
2023-03-18T17:38:35.245Z,52.64
2023-03-18T17:41:20.071Z,54.15
2023-03-18T17:43:47.347Z,55.11
2023-03-18T17:46:14.472Z,55.74
2023-03-18T17:48:41.484Z,56.73
2023-03-18T17:51:18.547Z,57.79
2023-03-18T17:53:49.412Z,57.60
2023-03-18T17:56:19.290Z,56.79
2023-03-18T17:58:51.769Z,55.76
2023-03-18T18:01:28.813Z,54.76
2023-03-18T18:03:58.572Z,55.84
2023-03-18T18:06:29.271Z,56.31
2023-03-18T18:09:00.996Z,56.01
2023-03-18T18:11:44.126Z,55.87
2023-03-18T18:14:23.248Z,55.41
2023-03-18T18:16:52.160Z,56.28
2023-03-18T18:19:19.729Z,56.96
2023-03-18T18:21:49.059Z,57.29
2023-03-18T18:24:29.734Z,58.33
2023-03-18T18:26:57.198Z,57.53
2023-03-18T18:29:28.207Z,56.52
2023-03-18T18:31:55.294Z,57.09
2023-03-18T18:34:22.232Z,56.54
2023-03-18T18:36:50.707Z,56.93
2023-03-18T18:39:18.212Z,56.58
2023-03-18T18:41:46.589Z,56.73
2023-03-18T18:44:14.088Z,57.44
2023-03-18T18:46:41.341Z,58.49
2023-03-18T18:49:23.685Z,58.87
2023-03-18T18:51:53.611Z,59.23
2023-03-18T18:54:26.987Z,59.40
2023-03-18T18:56:53.907Z,60.07
2023-03-18T18:59:26.982Z,57.86
2023-03-18T19:01:55.482Z,57.38
2023-03-18T19:04:23.845Z,57.52
2023-03-18T19:06:52.527Z,56.86
2023-03-18T19:09:23.767Z,57.37
2023-03-18T19:11:53.818Z,57.75
2023-03-18T19:14:27.539Z,58.24
2023-03-18T19:16:58.604Z,59.27
2023-03-18T19:19:32.174Z,60.93
2023-03-18T19:21:59.187Z,60.70
2023-03-18T19:24:36.838Z,62.67
2023-03-18T19:27:14.491Z,65.31
2023-03-18T19:29:42.269Z,63.57
2023-03-18T19:32:21.078Z,60.05
2023-03-18T19:34:49.522Z,60.74
2023-03-18T19:37:31.051Z,62.96
2023-03-18T19:39:59.852Z,63.99
2023-03-18T19:42:26.843Z,64.07
2023-03-18T19:44:53.861Z,62.70
2023-03-18T19:47:24.516Z,62.26
2023-03-18T19:49:51.908Z,63.82
2023-03-18T19:52:25.829Z,64.29
2023-03-18T19:54:54.203Z,65.11
2023-03-18T19:57:30.473Z,63.61
2023-03-18T19:59:58.772Z,64.17
2023-03-18T20:02:32.349Z,64.06
2023-03-18T20:05:03.790Z,63.01
2023-03-18T20:07:34.837Z,62.96
2023-03-18T20:10:01.838Z,62.34
2023-03-18T20:12:38.572Z,62.75
2023-03-18T20:15:14.708Z,62.84
2023-03-18T20:17:45.125Z,64.21
2023-03-18T20:20:20.052Z,68.67
2023-03-18T20:23:01.956Z,66.98
2023-03-18T20:25:36.243Z,67.05
2023-03-18T20:28:04.661Z,66.84
2023-03-18T20:30:38.223Z,67.31
2023-03-18T20:33:06.670Z,65.82
2023-03-18T20:35:37.505Z,64.39
2023-03-18T20:38:13.206Z,62.91
2023-03-18T20:40:42.481Z,64.55
2023-03-18T20:43:16.052Z,66.69
2023-03-18T20:45:43.753Z,64.52
2023-03-18T20:48:11.001Z,64.46
2023-03-18T20:50:38.163Z,65.08
2023-03-18T20:53:08.649Z,66.52
2023-03-18T20:55:36.384Z,66.29
2023-03-18T20:58:03.977Z,65.92
2023-03-18T21:00:33.176Z,68.78
2023-03-18T21:03:03.049Z,73.80
2023-03-18T21:05:30.000Z,74.52
2023-03-18T21:07:56.999Z,76.32
2023-03-18T21:10:26.459Z,79.15
2023-03-18T21:12:54.350Z,77.24
2023-03-18T21:15:26.145Z,78.20
2023-03-18T21:17:54.038Z,78.00
2023-03-18T21:20:27.036Z,78.23
2023-03-18T21:22:54.456Z,77.56
2023-03-18T21:25:25.651Z,77.94
2023-03-18T21:27:53.590Z,77.56
2023-03-18T21:30:22.705Z,78.08
2023-03-18T21:32:50.957Z,78.33
2023-03-18T21:35:25.044Z,78.92
2023-03-18T21:37:53.066Z,79.94
2023-03-18T21:40:23.709Z,80.25
2023-03-18T21:42:51.948Z,79.82
2023-03-18T21:45:23.620Z,80.02
2023-03-18T21:47:52.614Z,80.27
2023-03-18T21:50:24.318Z,78.57
2023-03-18T21:52:52.697Z,78.66
2023-03-18T21:55:21.085Z,78.37
2023-03-18T21:57:49.309Z,77.96
2023-03-18T22:00:20.080Z,78.44
2023-03-18T22:02:47.738Z,78.96
2023-03-18T22:05:19.936Z,78.12
2023-03-18T22:07:46.990Z,77.14
2023-03-18T22:10:20.901Z,77.13
2023-03-18T22:12:47.918Z,77.32
2023-03-18T22:15:24.138Z,76.55
2023-03-18T22:17:51.971Z,76.83
2023-03-18T22:20:19.004Z,75.28
2023-03-18T22:22:47.189Z,76.27
2023-03-18T22:25:36.492Z,75.74
2023-03-18T22:28:03.773Z,77.15
2023-03-18T22:30:33.456Z,76.28
2023-03-18T22:33:02.249Z,76.76
2023-03-18T22:35:30.334Z,76.91
2023-03-18T22:37:57.595Z,77.66
2023-03-18T22:40:28.600Z,77.81
2023-03-18T22:43:00.797Z,78.55
2023-03-18T22:45:33.262Z,77.21
2023-03-18T22:48:04.470Z,77.05
2023-03-18T22:50:34.468Z,77.72
2023-03-18T22:53:06.761Z,77.70
2023-03-18T22:55:39.603Z,78.87
2023-03-18T22:58:07.113Z,79.08
2023-03-18T23:00:40.755Z,78.96
2023-03-18T23:03:35.927Z,79.10
2023-03-18T23:06:04.067Z,81.82
2023-03-18T23:08:32.279Z,87.57
2023-03-18T23:11:01.780Z,85.44
2023-03-18T23:13:41.541Z,83.96
2023-03-18T23:16:15.731Z,83.76
2023-03-18T23:18:42.889Z,83.00
2023-03-18T23:21:19.814Z,82.65
2023-03-18T23:23:46.852Z,82.39
2023-03-18T23:26:14.507Z,80.88
2023-03-18T23:28:44.783Z,82.74
2023-03-18T23:31:14.279Z,82.68
2023-03-18T23:33:41.569Z,82.42
2023-03-18T23:36:09.016Z,82.52
2023-03-18T23:38:37.642Z,84.58
2023-03-18T23:41:05.190Z,85.45
2023-03-18T23:43:32.121Z,85.52
2023-03-18T23:45:59.305Z,86.61
2023-03-18T23:48:26.355Z,89.33
2023-03-18T23:50:53.746Z,89.00
2023-03-18T23:53:20.858Z,87.69
2023-03-18T23:55:49.548Z,87.01
2023-03-18T23:58:16.757Z,85.05
